createdAt,value
2022-12-12T00:01:52.075Z,99439.89
2022-12-12T00:04:24.255Z,99439.55
2022-12-12T00:06:56.014Z,99441.41
2022-12-12T00:09:27.741Z,99446.92
2022-12-12T00:11:59.504Z,99443.75
2022-12-12T00:14:31.427Z,99443.04
2022-12-12T00:17:03.151Z,99440.50
2022-12-12T00:19:35.178Z,99442.47
2022-12-12T00:22:07.086Z,99438.89
2022-12-12T00:24:39.004Z,99440.78
2022-12-12T00:27:10.962Z,99446.61
2022-12-12T00:29:42.765Z,99444.11
2022-12-12T00:32:14.500Z,99441.50
2022-12-12T00:34:46.284Z,99440.50
2022-12-12T00:37:18.770Z,99438.56
2022-12-12T00:39:50.730Z,99443.52
2022-12-12T00:42:22.427Z,99444.24
2022-12-12T00:44:54.737Z,99448.71
2022-12-12T00:47:26.491Z,99450.06
2022-12-12T00:49:58.270Z,99449.23
2022-12-12T00:52:30.145Z,99447.65
2022-12-12T00:55:02.149Z,99447.11
2022-12-12T00:57:34.564Z,99450.64
2022-12-12T01:00:09.884Z,99451.44
2022-12-12T01:02:42.087Z,99448.57
2022-12-12T01:05:14.731Z,99445.88
2022-12-12T01:07:46.694Z,99446.80
2022-12-12T01:10:18.432Z,99447.79
2022-12-12T01:12:50.795Z,99442.44
2022-12-12T01:15:22.925Z,99442.63
2022-12-12T01:17:54.795Z,99439.45
2022-12-12T01:20:29.603Z,99432.35
2022-12-12T01:23:01.384Z,99434.66
2022-12-12T01:25:33.384Z,99426.51
2022-12-12T01:28:05.684Z,99425.65
2022-12-12T01:30:37.954Z,99423.73
2022-12-12T01:33:09.629Z,99424.61
2022-12-12T01:35:41.384Z,99418.05
2022-12-12T01:38:13.065Z,99421.63
2022-12-12T01:40:44.981Z,99420.23
2022-12-12T01:43:18.153Z,99421.48
2022-12-12T01:46:39.548Z,99421.68
2022-12-12T01:49:18.752Z,99422.04
2022-12-12T01:51:52.761Z,99420.80
2022-12-12T01:54:28.294Z,99419.92
2022-12-12T01:57:03.534Z,99421.34
2022-12-12T01:59:36.782Z,99421.17
2022-12-12T02:02:09.695Z,99415.35
2022-12-12T02:04:42.254Z,99417.33
2022-12-12T02:07:14.344Z,99416.63
2022-12-12T02:09:47.506Z,99417.88
2022-12-12T02:12:19.512Z,99419.80
2022-12-12T02:14:54.006Z,99422.30
2022-12-12T02:17:54.750Z,99419.81
2022-12-12T02:20:51.019Z,99415.75
2022-12-12T02:23:45.285Z,99418.05
2022-12-12T02:26:43.808Z,99420.36
2022-12-12T02:29:35.797Z,99422.48
2022-12-12T02:32:15.586Z,99421.79
2022-12-12T02:34:54.703Z,99425.55
2022-12-12T02:37:33.938Z,99423.95
2022-12-12T02:40:14.817Z,99428.39
2022-12-12T02:42:56.557Z,99427.86
2022-12-12T02:45:34.245Z,99426.10
2022-12-12T02:48:15.900Z,99423.05
2022-12-12T02:50:49.998Z,99426.26
2022-12-12T02:53:23.848Z,99421.64
2022-12-12T02:56:06.420Z,99420.92
2022-12-12T02:58:40.483Z,99419.54
2022-12-12T03:01:25.208Z,99421.83
2022-12-12T03:04:20.608Z,99419.88
2022-12-12T03:07:20.212Z,99419.38
2022-12-12T03:10:04.301Z,99408.89
2022-12-12T03:12:49.625Z,99406.77
2022-12-12T03:15:27.479Z,99407.46
2022-12-12T03:18:15.820Z,99406.41
2022-12-12T03:20:54.870Z,99407.30
2022-12-12T03:23:30.704Z,99411.73
2022-12-12T03:26:07.761Z,99414.04
2022-12-12T03:28:46.124Z,99416.87
2022-12-12T03:31:22.556Z,99413.70
2022-12-12T03:33:57.857Z,99414.40
2022-12-12T03:36:34.947Z,99415.46
2022-12-12T03:39:13.590Z,99412.09
2022-12-12T03:41:57.896Z,99411.92
2022-12-12T03:44:41.146Z,99413.68
2022-12-12T03:47:19.996Z,99413.16
2022-12-12T03:49:56.056Z,99404.45
2022-12-12T03:52:34.458Z,99407.30
2022-12-12T03:55:14.107Z,99405.52
2022-12-12T03:57:50.681Z,99408.38
2022-12-12T04:00:22.636Z,99404.46
2022-12-12T04:03:02.365Z,99405.52
2022-12-12T04:06:03.008Z,99402.16
2022-12-12T04:08:35.960Z,99406.07
2022-12-12T04:11:33.397Z,99404.84
2022-12-12T04:14:18.863Z,99405.70
2022-12-12T04:17:00.773Z,99400.73
2022-12-12T04:19:55.214Z,99403.05
2022-12-12T04:22:54.826Z,99400.20
2022-12-12T04:25:34.497Z,99404.64
2022-12-12T04:28:08.492Z,99400.02
2022-12-12T04:30:40.570Z,99400.02
2022-12-12T04:33:16.018Z,99398.60
2022-12-12T04:35:51.932Z,99396.30
2022-12-12T04:38:26.399Z,99394.52
2022-12-12T04:41:00.635Z,99394.70
2022-12-12T04:43:36.244Z,99401.10
2022-12-12T04:46:11.561Z,99401.64
2022-12-12T04:48:47.450Z,99398.77
2022-12-12T04:51:24.363Z,99397.55
2022-12-12T04:54:03.914Z,99403.05
2022-12-12T04:56:38.184Z,99390.43
2022-12-12T04:59:10.664Z,99393.63
2022-12-12T05:01:53.404Z,99401.09
2022-12-12T05:04:30.880Z,99392.92
2022-12-12T05:07:08.654Z,99393.28
2022-12-12T05:09:40.984Z,99396.30
2022-12-12T05:12:12.685Z,99395.05
2022-12-12T05:14:44.487Z,99394.17
2022-12-12T05:17:19.921Z,99396.66
2022-12-12T05:19:51.657Z,99395.42
2022-12-12T05:22:23.573Z,99394.34
2022-12-12T05:24:55.483Z,99395.06
2022-12-12T05:27:27.952Z,99398.25
2022-12-12T05:29:59.673Z,99400.56
2022-12-12T05:32:31.563Z,99400.38
2022-12-12T05:35:03.519Z,99400.39
2022-12-12T05:37:35.271Z,99395.59
2022-12-12T05:40:08.411Z,99402.70
2022-12-12T05:42:40.241Z,99404.29
2022-12-12T05:45:13.822Z,99405.89
2022-12-12T05:47:45.765Z,99404.46
2022-12-12T05:50:17.744Z,99403.93
2022-12-12T05:52:49.946Z,99405.00
2022-12-12T05:55:21.751Z,99411.04
2022-12-12T05:57:53.797Z,99406.42
2022-12-12T06:00:25.616Z,99410.52
2022-12-12T06:02:57.528Z,99413.34
2022-12-12T06:05:29.436Z,99417.27
2022-12-12T06:08:01.170Z,99412.83
2022-12-12T06:10:33.152Z,99414.42
2022-12-12T06:13:05.122Z,99419.92
2022-12-12T06:15:39.723Z,99418.52
2022-12-12T06:18:12.735Z,99420.27
2022-12-12T06:20:44.549Z,99425.27
2022-12-12T06:23:16.629Z,99420.27
2022-12-12T06:25:52.202Z,99426.86
2022-12-12T06:28:24.119Z,99427.21
2022-12-12T06:30:55.801Z,99427.58
2022-12-12T06:33:28.563Z,99428.27
2022-12-12T06:36:02.972Z,99432.89
2022-12-12T06:38:35.232Z,99430.39
2022-12-12T06:41:10.866Z,99430.75
2022-12-12T06:43:43.048Z,99434.66
2022-12-12T06:46:17.768Z,99439.45
2022-12-12T06:48:50.376Z,99440.54
2022-12-12T06:51:21.884Z,99439.83
2022-12-12T06:53:54.199Z,99439.46
2022-12-12T06:56:27.447Z,99448.52
2022-12-12T06:59:01.031Z,99447.46
2022-12-12T07:01:33.062Z,99442.13
2022-12-12T07:04:05.671Z,99436.09
2022-12-12T07:06:35.954Z,99438.94
2022-12-12T07:09:09.064Z,99440.89
2022-12-12T07:11:41.974Z,99442.14
2022-12-12T07:14:14.177Z,99435.91
2022-12-12T07:16:46.403Z,99434.48
2022-12-12T07:19:18.188Z,99436.09
2022-12-12T07:21:49.851Z,99433.95
2022-12-12T07:24:21.580Z,99444.61
2022-12-12T07:26:53.388Z,99442.31
2022-12-12T07:29:25.532Z,99444.08
2022-12-12T07:31:57.406Z,99446.22
2022-12-12T07:34:31.256Z,99447.98
2022-12-12T07:37:03.523Z,99454.21
2022-12-12T07:39:37.091Z,99450.67
2022-12-12T07:42:08.855Z,99449.95
2022-12-12T07:44:40.808Z,99451.55
2022-12-12T07:47:12.724Z,99453.34
2022-12-12T07:49:44.488Z,99448.52
2022-12-12T07:52:16.213Z,99450.83
2022-12-12T07:54:48.235Z,99452.25
2022-12-12T07:57:20.299Z,99453.13
2022-12-12T07:59:53.134Z,99451.52
2022-12-12T08:02:23.446Z,99455.43
2022-12-12T08:04:55.509Z,99457.75
2022-12-12T08:07:27.276Z,99454.36
2022-12-12T08:09:59.118Z,99458.45
2022-12-12T08:12:33.117Z,99457.73
2022-12-12T08:15:05.375Z,99461.83
2022-12-12T08:17:37.158Z,99457.73
2022-12-12T08:20:10.963Z,99460.23
2022-12-12T08:22:43.187Z,99465.21
2022-12-12T08:25:15.597Z,99460.23
2022-12-12T08:27:47.373Z,99456.33
2022-12-12T08:30:19.394Z,99454.20
2022-12-12T08:32:51.034Z,99455.96
2022-12-12T08:35:23.008Z,99458.09
2022-12-12T08:37:54.632Z,99457.73
2022-12-12T08:40:26.872Z,99456.67
2022-12-12T08:42:58.467Z,99455.59
2022-12-12T08:45:30.165Z,99461.11
2022-12-12T08:48:02.078Z,99459.16
2022-12-12T08:50:33.941Z,99463.79
2022-12-12T08:53:05.785Z,99469.48
2022-12-12T08:55:37.530Z,99469.13
2022-12-12T08:58:09.194Z,99467.50
2022-12-12T09:00:41.369Z,99469.64
2022-12-12T09:03:13.552Z,99465.36
2022-12-12T09:05:47.177Z,99466.42
2022-12-12T09:08:19.271Z,99470.69
2022-12-12T09:10:52.593Z,99466.59
2022-12-12T09:13:24.324Z,99469.79
2022-12-12T09:15:56.176Z,99470.68
2022-12-12T09:18:29.053Z,99470.13
2022-12-12T09:21:01.564Z,99468.35
2022-12-12T09:23:33.557Z,99463.89
2022-12-12T09:26:09.380Z,99465.70
2022-12-12T09:28:41.437Z,99465.69
2022-12-12T09:31:14.691Z,99464.96
2022-12-12T09:33:46.588Z,99463.89
2022-12-12T09:36:18.777Z,99466.73
2022-12-12T09:38:50.957Z,99465.30
2022-12-12T09:41:27.004Z,99469.04
2022-12-12T09:44:02.057Z,99471.50
2022-12-12T09:46:41.224Z,99473.83
2022-12-12T09:49:22.539Z,99475.04
2022-12-12T09:51:55.825Z,99478.96
2022-12-12T09:54:29.576Z,99490.92
2022-12-12T09:57:15.728Z,99486.11
2022-12-12T09:59:52.597Z,99486.42
2022-12-12T10:02:57.030Z,99488.23
2022-12-12T10:05:39.041Z,99481.09
2022-12-12T10:08:20.990Z,99479.31
2022-12-12T10:10:57.157Z,99480.90
2022-12-12T10:13:35.072Z,99489.27
2022-12-12T10:16:13.611Z,99486.43
2022-12-12T10:18:49.498Z,99481.95
2022-12-12T10:21:27.385Z,99489.42
2022-12-12T10:24:07.365Z,99488.56
2022-12-12T10:26:42.880Z,99484.23
2022-12-12T10:29:19.739Z,99479.92
2022-12-12T10:32:02.153Z,99480.09
2022-12-12T10:34:47.239Z,99483.36
2022-12-12T10:37:32.328Z,99480.30
2022-12-12T10:40:18.685Z,99479.59
2022-12-12T10:42:56.986Z,99474.59
2022-12-12T10:45:49.341Z,99469.41
2022-12-12T10:48:22.252Z,99467.69
2022-12-12T10:50:57.627Z,99470.17
2022-12-12T10:53:30.959Z,99476.73
2022-12-12T10:56:09.237Z,99474.73
2022-12-12T10:58:43.121Z,99476.49
2022-12-12T11:01:45.024Z,99481.32
2022-12-12T11:04:16.958Z,99476.58
2022-12-12T11:06:52.239Z,99469.42
2022-12-12T11:09:26.375Z,99471.58
2022-12-12T11:12:02.621Z,99473.54
2022-12-12T11:14:37.515Z,99481.16
2022-12-12T11:17:23.541Z,99479.88
2022-12-12T11:19:57.706Z,99473.09
2022-12-12T11:22:32.983Z,99477.83
2022-12-12T11:25:05.632Z,99474.52
2022-12-12T11:27:40.518Z,99468.96
2022-12-12T11:30:29.107Z,99466.33
2022-12-12T11:33:01.943Z,99468.52
2022-12-12T11:35:39.993Z,99462.59
2022-12-12T11:38:21.052Z,99461.84
2022-12-12T11:41:02.198Z,99457.67
2022-12-12T11:43:36.888Z,99461.94
2022-12-12T11:46:20.789Z,99461.40
2022-12-12T11:49:00.616Z,99457.78
2022-12-12T11:51:38.619Z,99458.36
2022-12-12T11:54:15.709Z,99462.77
2022-12-12T11:56:51.860Z,99462.60
2022-12-12T11:59:50.048Z,99459.23
2022-12-12T12:02:41.695Z,99458.74
2022-12-12T12:05:24.860Z,99456.83
2022-12-12T12:08:08.327Z,99457.84
2022-12-12T12:10:53.028Z,99461.56
2022-12-12T12:13:41.756Z,99457.40
2022-12-12T12:16:29.439Z,99458.27
2022-12-12T12:19:09.812Z,99452.11
2022-12-12T12:21:54.636Z,99454.86
2022-12-12T12:24:44.700Z,99459.90
2022-12-12T12:27:22.040Z,99463.52
2022-12-12T12:30:14.338Z,99459.84
2022-12-12T12:32:59.908Z,99460.16
2022-12-12T12:35:33.553Z,99457.94
2022-12-12T12:38:20.657Z,99458.08
2022-12-12T12:41:13.238Z,99456.38
2022-12-12T12:43:58.331Z,99456.41
2022-12-12T12:46:38.383Z,99458.80
2022-12-12T12:49:16.118Z,99460.40
2022-12-12T12:51:51.313Z,99460.92
2022-12-12T12:54:28.516Z,99463.50
2022-12-12T12:57:06.517Z,99465.10
2022-12-12T12:59:43.757Z,99467.92
2022-12-12T13:02:27.252Z,99462.27
2022-12-12T13:05:07.491Z,99463.92
2022-12-12T13:07:47.630Z,99463.15
2022-12-12T13:10:24.697Z,99462.75
2022-12-12T13:13:00.802Z,99464.65
2022-12-12T13:15:35.659Z,99458.62
2022-12-12T13:18:16.680Z,99464.14
2022-12-12T13:20:56.750Z,99472.20
2022-12-12T13:23:56.683Z,99472.73
2022-12-12T13:26:36.159Z,99473.42
2022-12-12T13:29:23.369Z,99483.39
2022-12-12T13:32:30.017Z,99484.36
2022-12-12T13:35:07.304Z,99478.89
2022-12-12T13:37:49.980Z,99481.35
2022-12-12T13:40:28.087Z,99479.95
2022-12-12T13:43:09.465Z,99480.30
2022-12-12T13:45:45.347Z,99478.69
2022-12-12T13:48:46.993Z,99484.38
2022-12-12T13:51:45.052Z,99494.42
2022-12-12T13:54:54.805Z,99495.91
2022-12-12T13:58:02.212Z,99498.70
2022-12-12T14:00:35.432Z,99498.97
2022-12-12T14:03:31.091Z,99501.16
2022-12-12T14:06:13.265Z,99508.66
2022-12-12T14:08:52.626Z,99511.70
2022-12-12T14:11:31.689Z,99513.09
2022-12-12T14:14:09.904Z,99522.89
2022-12-12T14:16:42.429Z,99524.86
2022-12-12T14:19:29.559Z,99525.39
2022-12-12T14:22:01.527Z,99526.83
2022-12-12T14:24:55.666Z,99526.27
2022-12-12T14:28:15.610Z,99531.63
2022-12-12T14:30:52.653Z,99531.29
2022-12-12T14:34:08.515Z,99535.02
2022-12-12T14:37:07.949Z,99541.95
2022-12-12T14:40:01.901Z,99544.10
2022-12-12T14:43:19.135Z,99544.29
2022-12-12T14:45:39.193Z,99547.29
2022-12-12T14:48:26.369Z,99549.60
2022-12-12T14:51:02.424Z,99547.83
2022-12-12T14:53:40.648Z,99549.77
2022-12-12T14:56:14.814Z,99550.48
2022-12-12T14:58:50.791Z,99553.33
2022-12-12T15:01:32.845Z,99553.02
2022-12-12T15:04:08.378Z,99558.72
2022-12-12T15:06:41.720Z,99558.02
2022-12-12T15:09:29.423Z,99558.00
2022-12-12T15:12:16.355Z,99560.49
2022-12-12T15:14:57.805Z,99561.21
2022-12-12T15:17:32.993Z,99561.92
2022-12-12T15:20:08.204Z,99561.58
2022-12-12T15:22:50.469Z,99561.04
2022-12-12T15:25:24.296Z,99561.21
2022-12-12T15:27:57.308Z,99562.99
2022-12-12T15:30:31.428Z,99562.46
2022-12-12T15:33:05.029Z,99565.66
2022-12-12T15:35:36.874Z,99567.27
2022-12-12T15:38:14.029Z,99569.23
2022-12-12T15:40:50.328Z,99572.61
2022-12-12T15:43:24.737Z,99578.11
2022-12-12T15:45:59.111Z,99579.36
2022-12-12T15:48:31.358Z,99585.94
2022-12-12T15:51:06.054Z,99583.99
2022-12-12T15:53:39.817Z,99591.10
2022-12-12T15:56:13.974Z,99591.26
2022-12-12T15:58:48.085Z,99593.40
2022-12-12T16:01:22.384Z,99593.23
2022-12-12T16:03:59.796Z,99594.84
2022-12-12T16:06:33.669Z,99594.83
2022-12-12T16:09:17.457Z,99600.52
2022-12-12T16:11:51.132Z,99598.39
2022-12-12T16:14:40.815Z,99600.52
2022-12-12T16:17:19.446Z,99605.14
2022-12-12T16:19:56.189Z,99608.34
2022-12-12T16:22:35.794Z,99612.96
2022-12-12T16:25:20.052Z,99618.29
2022-12-12T16:27:57.027Z,99615.08
2022-12-12T16:30:29.193Z,99618.81
2022-12-12T16:33:12.002Z,99619.36
2022-12-12T16:35:42.280Z,99625.05
2022-12-12T16:38:17.286Z,99627.55
2022-12-12T16:40:50.357Z,99628.60
2022-12-12T16:43:23.256Z,99628.23
2022-12-12T16:45:56.719Z,99623.23
2022-12-12T16:48:32.967Z,99635.35
2022-12-12T16:51:07.751Z,99633.02
2022-12-12T16:53:39.628Z,99634.79
2022-12-12T16:56:14.141Z,99632.85
2022-12-12T16:58:46.884Z,99636.91
2022-12-12T17:01:19.153Z,99639.02
2022-12-12T17:03:52.088Z,99643.86
2022-12-12T17:06:24.835Z,99644.56
2022-12-12T17:08:55.027Z,99648.83
2022-12-12T17:11:27.312Z,99649.16
2022-12-12T17:13:59.096Z,99644.55
2022-12-12T17:16:30.920Z,99646.48
2022-12-12T17:19:02.673Z,99646.30
2022-12-12T17:21:34.836Z,99648.06
2022-12-12T17:24:07.397Z,99652.49
2022-12-12T17:26:40.923Z,99661.52
2022-12-12T17:29:12.722Z,99659.92
2022-12-12T17:31:44.473Z,99663.34
2022-12-12T17:34:16.285Z,99662.93
2022-12-12T17:36:48.908Z,99666.85
2022-12-12T17:39:19.242Z,99668.65
2022-12-12T17:41:50.937Z,99665.63
2022-12-12T17:44:23.786Z,99661.35
2022-12-12T17:46:56.666Z,99666.33
2022-12-12T17:49:31.010Z,99664.69
2022-12-12T17:52:03.248Z,99670.92
2022-12-12T17:54:35.210Z,99675.91
2022-12-12T17:57:07.460Z,99682.84
2022-12-12T17:59:39.707Z,99679.48
2022-12-12T18:02:13.302Z,99681.63
2022-12-12T18:04:45.547Z,99678.61
2022-12-12T18:07:17.967Z,99679.06
2022-12-12T18:09:49.677Z,99682.10
2022-12-12T18:12:21.398Z,99685.66
2022-12-12T18:14:54.178Z,99684.27
2022-12-12T18:17:26.697Z,99684.28
2022-12-12T18:19:58.521Z,99694.70
2022-12-12T18:22:31.426Z,99691.91
2022-12-12T18:25:03.428Z,99700.71
2022-12-12T18:27:35.072Z,99697.64
2022-12-12T18:30:08.233Z,99696.56
2022-12-12T18:32:39.904Z,99697.10
2022-12-12T18:35:12.291Z,99698.41
2022-12-12T18:37:43.998Z,99696.04
2022-12-12T18:40:16.308Z,99703.85
2022-12-12T18:42:46.893Z,99707.22
2022-12-12T18:45:19.056Z,99705.58
2022-12-12T18:47:50.744Z,99708.59
2022-12-12T18:50:25.527Z,99708.42
2022-12-12T18:52:57.697Z,99714.66
2022-12-12T18:55:30.341Z,99714.83
2022-12-12T18:58:00.981Z,99718.24
2022-12-12T19:00:32.616Z,99722.99
2022-12-12T19:03:06.039Z,99727.08
2022-12-12T19:05:42.710Z,99732.40
2022-12-12T19:08:15.334Z,99736.29
2022-12-12T19:10:49.318Z,99736.88
2022-12-12T19:13:21.619Z,99738.52
2022-12-12T19:20:38.311Z,99743.59
2022-12-12T19:23:10.745Z,99744.09
2022-12-12T19:26:12.732Z,99750.67
2022-12-12T19:28:44.731Z,99757.38
2022-12-12T19:31:18.087Z,99760.02
2022-12-12T19:33:51.291Z,99762.74
2022-12-12T19:36:24.728Z,99759.18
2022-12-12T19:38:58.113Z,99766.11
2022-12-12T19:41:30.802Z,99761.62
2022-12-12T19:44:02.728Z,99760.67
2022-12-12T19:46:35.052Z,99757.63
2022-12-12T19:49:08.577Z,99762.30
2022-12-12T19:51:40.664Z,99757.70
2022-12-12T19:54:17.858Z,99761.12
2022-12-12T19:56:50.102Z,99765.40
2022-12-12T19:59:21.130Z,99766.16
2022-12-12T20:01:54.597Z,99769.02
2022-12-12T20:04:30.230Z,99771.03
2022-12-12T20:07:02.628Z,99774.20
2022-12-12T20:09:36.998Z,99771.67
2022-12-12T20:12:09.074Z,99772.98
2022-12-12T20:14:40.695Z,99768.39
2022-12-12T20:17:13.360Z,99767.64
2022-12-12T20:19:47.360Z,99774.95
2022-12-12T20:22:19.249Z,99775.42
2022-12-12T20:24:51.362Z,99770.84
2022-12-12T20:27:23.107Z,99777.71
2022-12-12T20:29:54.970Z,99786.33
2022-12-12T20:32:26.666Z,99786.14
2022-12-12T20:34:58.385Z,99790.14
2022-12-12T20:37:30.773Z,99784.42
2022-12-12T20:40:02.682Z,99784.39
2022-12-12T20:42:34.462Z,99790.20
2022-12-12T20:45:07.100Z,99796.69
2022-12-12T20:47:37.257Z,99786.91
2022-12-12T20:50:09.911Z,99791.47
2022-12-12T20:52:41.118Z,99785.88
2022-12-12T20:55:13.676Z,99792.78
2022-12-12T20:57:44.016Z,99792.03
2022-12-12T21:00:16.707Z,99791.23
2022-12-12T21:02:48.909Z,99789.84
2022-12-12T21:05:21.079Z,99794.02
2022-12-12T21:07:53.802Z,99799.35
2022-12-12T21:10:25.451Z,99795.76
2022-12-12T21:12:57.728Z,99799.98
2022-12-12T21:15:29.514Z,99804.66
2022-12-12T21:18:01.264Z,99799.09
2022-12-12T21:20:33.113Z,99797.83
2022-12-12T21:23:04.883Z,99794.77
2022-12-12T21:25:39.131Z,99796.54
2022-12-12T21:28:11.040Z,99794.63
2022-12-12T21:30:45.371Z,99795.88
2022-12-12T21:33:17.180Z,99801.95
2022-12-12T21:35:48.966Z,99802.48
2022-12-12T21:38:20.780Z,99798.95
2022-12-12T21:40:53.257Z,99802.71
2022-12-12T21:43:25.308Z,99810.47
2022-12-12T21:45:57.129Z,99819.10
2022-12-12T21:48:29.940Z,99828.28
2022-12-12T21:51:04.188Z,99825.02
2022-12-12T21:53:36.492Z,99826.56
2022-12-12T21:56:11.160Z,99828.02
2022-12-12T21:58:44.389Z,99828.48
2022-12-12T22:01:17.744Z,99833.56
2022-12-12T22:03:50.284Z,99834.00
2022-12-12T22:06:21.539Z,99833.64
2022-12-12T22:08:55.208Z,99837.84
2022-12-12T22:11:40.820Z,99840.45
2022-12-12T22:14:22.272Z,99844.02
2022-12-12T22:16:54.268Z,99840.75
2022-12-12T22:19:26.061Z,99845.01
2022-12-12T22:21:57.754Z,99843.88
2022-12-12T22:24:29.833Z,99844.79
2022-12-12T22:27:02.288Z,99849.91
2022-12-12T22:29:34.180Z,99855.66
2022-12-12T22:32:06.094Z,99848.59
2022-12-12T22:34:37.849Z,99853.08
2022-12-12T22:37:09.617Z,99853.98
2022-12-12T22:39:41.379Z,99864.42
2022-12-12T22:42:13.195Z,99857.52
2022-12-12T22:44:45.096Z,99852.88
2022-12-12T22:47:16.905Z,99851.56
2022-12-12T22:49:48.785Z,99853.53
2022-12-12T22:52:25.374Z,99857.38
2022-12-12T22:54:58.089Z,99857.23
2022-12-12T22:57:30.406Z,99859.56
2022-12-12T23:00:02.068Z,99853.85
2022-12-12T23:02:34.884Z,99856.18
2022-12-12T23:05:07.321Z,99848.96
2022-12-12T23:07:39.072Z,99853.36
2022-12-12T23:10:11.751Z,99863.45
2022-12-12T23:12:41.867Z,99868.35
2022-12-12T23:15:14.730Z,99863.50
2022-12-12T23:17:46.687Z,99869.29
2022-12-12T23:20:18.508Z,99868.91
2022-12-12T23:22:50.138Z,99868.91
2022-12-12T23:25:22.066Z,99867.41
2022-12-12T23:27:54.073Z,99870.27
2022-12-12T23:30:25.694Z,99870.62
2022-12-12T23:32:57.697Z,99876.84
2022-12-12T23:35:29.366Z,99884.18
2022-12-12T23:38:01.091Z,99883.51
2022-12-12T23:40:34.850Z,99883.98
2022-12-12T23:43:07.096Z,99884.81
2022-12-12T23:45:39.529Z,99893.39
2022-12-12T23:48:09.843Z,99900.32
2022-12-12T23:50:41.522Z,99898.52
2022-12-12T23:53:13.314Z,99896.95
2022-12-12T23:55:46.287Z,99888.59
2022-12-12T23:58:18.838Z,99889.29
